Flying American Virtual Airport Information Service

New York John F. Kennedy International Airport

ICAO: KJFK Country: United States
Latitude: 40.6398 Longitude: -73.7789
Latest Arrival : AALJUMP (KMCI-KJFK) Latest Departure : AALJUMP (KJFK-KDCA)


WX CaptureLIVE
Data provided by noaa.gov | Fetched at 23:49:48

METAR : KJFK 220251Z 33019G27KT 10SM SCT250 17/03 A3009 RMK AO2 PK WND 32027/0243 SLP190 T01670028 51036

TAF : KJFK 220217Z 2202/2306 33012G18KT P6SM FEW250 FM220500 33010KT P6SM FEW250 FM221300 35010KT P6SM SCT250 FM222000 18010KT P6SM SCT200 FM230100 19007KT P6SM SCT150


Runway Data for KJFK
Data provided by openaviationdata.com

Runway ID Mag Var Hdg Length Elevation Surface ILS Freq ILS Id ILS Slope
04L -14 44° 11353 ft 13 ft Asphalt 110.9 IHIQ 3
04R -14 44° 8401 ft 13 ft Asphalt 109.5 IJFK 3
13L -14 134° 9992 ft 13 ft Asphalt 111.5 ITLK 3
13R -14 134° 14564 ft 13 ft Asphalt -- -- --
22L -14 224° 8401 ft 13 ft Asphalt 110.9 IIWY 3
22R -14 224° 11353 ft 13 ft Asphalt 109.5 IJOC 3
31L -14 314° 14564 ft 13 ft Asphalt 111.35 IMOH 3
31R -14 314° 9992 ft 13 ft Asphalt 111.5 IRTH 3

New York John F. Kennedy International Airport, United States
Use only for reference purposes



Not for navigational purposes.